sensor_id;sensor_type;location;lat;lon;timestamp;P1;durP1;ratioP1;P2;durP2;ratioP2
58302;SDS011;44109;52.398;7.024;2022-10-04T00:00:07;6.38;;;4.03;;
58302;SDS011;44109;52.398;7.024;2022-10-04T00:02:36;7.10;;;4.72;;
58302;SDS011;44109;52.398;7.024;2022-10-04T00:05:12;5.28;;;3.78;;
58302;SDS011;44109;52.398;7.024;2022-10-04T00:07:46;6.13;;;3.90;;
58302;SDS011;44109;52.398;7.024;2022-10-04T00:10:21;7.78;;;4.72;;
58302;SDS011;44109;52.398;7.024;2022-10-04T00:12:54;7.85;;;4.57;;
58302;SDS011;44109;52.398;7.024;2022-10-04T00:15:26;6.82;;;4.82;;
58302;SDS011;44109;52.398;7.024;2022-10-04T00:17:59;9.77;;;4.90;;
58302;SDS011;44109;52.398;7.024;2022-10-04T00:20:59;8.35;;;4.10;;
58302;SDS011;44109;52.398;7.024;2022-10-04T00:23:42;8.05;;;4.00;;
58302;SDS011;44109;52.398;7.024;2022-10-04T00:29:35;6.72;;;4.68;;
58302;SDS011;44109;52.398;7.024;2022-10-04T00:34:55;7.38;;;4.53;;
58302;SDS011;44109;52.398;7.024;2022-10-04T00:37:25;5.13;;;4.15;;
58302;SDS011;44109;52.398;7.024;2022-10-04T00:40:04;8.20;;;4.72;;
58302;SDS011;44109;52.398;7.024;2022-10-04T00:42:45;6.82;;;4.65;;
58302;SDS011;44109;52.398;7.024;2022-10-04T00:45:25;8.00;;;5.15;;
58302;SDS011;44109;52.398;7.024;2022-10-04T00:48:02;25.33;;;5.63;;
58302;SDS011;44109;52.398;7.024;2022-10-04T00:50:53;8.15;;;5.38;;
58302;SDS011;44109;52.398;7.024;2022-10-04T00:53:36;7.68;;;5.03;;
58302;SDS011;44109;52.398;7.024;2022-10-04T00:56:16;8.07;;;4.82;;
58302;SDS011;44109;52.398;7.024;2022-10-04T00:59:07;8.68;;;4.60;;
58302;SDS011;44109;52.398;7.024;2022-10-04T01:01:51;7.75;;;5.03;;
58302;SDS011;44109;52.398;7.024;2022-10-04T01:04:28;10.38;;;4.93;;
58302;SDS011;44109;52.398;7.024;2022-10-04T01:07:05;9.30;;;5.18;;
58302;SDS011;44109;52.398;7.024;2022-10-04T01:09:41;7.70;;;4.70;;
58302;SDS011;44109;52.398;7.024;2022-10-04T01:12:21;6.35;;;4.45;;
58302;SDS011;44109;52.398;7.024;2022-10-04T01:15:05;7.50;;;5.10;;
58302;SDS011;44109;52.398;7.024;2022-10-04T01:17:56;8.57;;;4.88;;
58302;SDS011;44109;52.398;7.024;2022-10-04T01:20:36;5.55;;;4.68;;
58302;SDS011;44109;52.398;7.024;2022-10-04T01:23:09;8.90;;;5.40;;
58302;SDS011;44109;52.398;7.024;2022-10-04T01:25:46;6.35;;;4.82;;
58302;SDS011;44109;52.398;7.024;2022-10-04T01:28:17;7.80;;;5.13;;
58302;SDS011;44109;52.398;7.024;2022-10-04T01:30:45;8.57;;;5.60;;
58302;SDS011;44109;52.398;7.024;2022-10-04T01:33:13;7.00;;;5.00;;
58302;SDS011;44109;52.398;7.024;2022-10-04T01:35:40;7.95;;;4.90;;
58302;SDS011;44109;52.398;7.024;2022-10-04T01:38:10;10.65;;;4.93;;
58302;SDS011;44109;52.398;7.024;2022-10-04T01:40:40;7.95;;;5.45;;
58302;SDS011;44109;52.398;7.024;2022-10-04T01:43:19;11.07;;;5.50;;
58302;SDS011;44109;52.398;7.024;2022-10-04T01:45:57;6.93;;;4.80;;
58302;SDS011;44109;52.398;7.024;2022-10-04T01:48:35;25.00;;;8.05;;
58302;SDS011;44109;52.398;7.024;2022-10-04T01:51:06;9.40;;;5.03;;
58302;SDS011;44109;52.398;7.024;2022-10-04T01:53:44;8.00;;;4.75;;
58302;SDS011;44109;52.398;7.024;2022-10-04T01:56:20;8.65;;;4.68;;
58302;SDS011;44109;52.398;7.024;2022-10-04T01:58:54;10.07;;;4.93;;
58302;SDS011;44109;52.398;7.024;2022-10-04T02:01:28;8.10;;;4.55;;
58302;SDS011;44109;52.398;7.024;2022-10-04T02:04:11;8.90;;;5.00;;
58302;SDS011;44109;52.398;7.024;2022-10-04T02:06:44;7.22;;;4.88;;
58302;SDS011;44109;52.398;7.024;2022-10-04T02:09:21;7.90;;;4.88;;
58302;SDS011;44109;52.398;7.024;2022-10-04T02:11:52;6.95;;;5.25;;
58302;SDS011;44109;52.398;7.024;2022-10-04T02:14:23;9.45;;;5.40;;
58302;SDS011;44109;52.398;7.024;2022-10-04T02:16:54;8.75;;;5.90;;
58302;SDS011;44109;52.398;7.024;2022-10-04T02:19:23;5.60;;;4.55;;
58302;SDS011;44109;52.398;7.024;2022-10-04T02:21:59;9.73;;;5.63;;
58302;SDS011;44109;52.398;7.024;2022-10-04T02:24:32;7.18;;;4.20;;
58302;SDS011;44109;52.398;7.024;2022-10-04T02:27:04;7.20;;;4.70;;
58302;SDS011;44109;52.398;7.024;2022-10-04T02:29:32;7.70;;;5.30;;
58302;SDS011;44109;52.398;7.024;2022-10-04T02:31:59;7.55;;;4.47;;
58302;SDS011;44109;52.398;7.024;2022-10-04T02:34:48;9.13;;;5.03;;
58302;SDS011;44109;52.398;7.024;2022-10-04T02:37:16;9.80;;;5.78;;
58302;SDS011;44109;52.398;7.024;2022-10-04T02:39:46;6.38;;;4.50;;
58302;SDS011;44109;52.398;7.024;2022-10-04T02:42:20;7.10;;;5.20;;
58302;SDS011;44109;52.398;7.024;2022-10-04T02:45:05;8.27;;;4.93;;
58302;SDS011;44109;52.398;7.024;2022-10-04T02:47:46;9.63;;;5.72;;
58302;SDS011;44109;52.398;7.024;2022-10-04T02:50:22;5.25;;;4.22;;
58302;SDS011;44109;52.398;7.024;2022-10-04T02:52:56;8.38;;;4.60;;
58302;SDS011;44109;52.398;7.024;2022-10-04T02:55:39;7.50;;;5.32;;
58302;SDS011;44109;52.398;7.024;2022-10-04T02:58:08;9.02;;;5.15;;
58302;SDS011;44109;52.398;7.024;2022-10-04T03:00:46;5.68;;;4.78;;
58302;SDS011;44109;52.398;7.024;2022-10-04T03:03:19;6.25;;;4.82;;
58302;SDS011;44109;52.398;7.024;2022-10-04T03:05:54;8.85;;;4.72;;
58302;SDS011;44109;52.398;7.024;2022-10-04T03:08:28;7.13;;;4.82;;
58302;SDS011;44109;52.398;7.024;2022-10-04T03:11:13;8.38;;;5.07;;
58302;SDS011;44109;52.398;7.024;2022-10-04T03:13:43;9.52;;;5.70;;
58302;SDS011;44109;52.398;7.024;2022-10-04T03:16:15;7.03;;;4.88;;
58302;SDS011;44109;52.398;7.024;2022-10-04T03:18:44;7.55;;;5.10;;
58302;SDS011;44109;52.398;7.024;2022-10-04T03:21:15;7.40;;;5.53;;
58302;SDS011;44109;52.398;7.024;2022-10-04T03:23:46;6.63;;;4.60;;
58302;SDS011;44109;52.398;7.024;2022-10-04T03:26:20;6.63;;;4.60;;
58302;SDS011;44109;52.398;7.024;2022-10-04T03:28:55;6.97;;;5.22;;
58302;SDS011;44109;52.398;7.024;2022-10-04T03:31:24;8.23;;;5.50;;
58302;SDS011;44109;52.398;7.024;2022-10-04T03:33:54;7.40;;;5.03;;
58302;SDS011;44109;52.398;7.024;2022-10-04T03:36:24;8.55;;;5.30;;
58302;SDS011;44109;52.398;7.024;2022-10-04T03:38:54;7.28;;;4.97;;
58302;SDS011;44109;52.398;7.024;2022-10-04T03:41:25;9.57;;;5.40;;
58302;SDS011;44109;52.398;7.024;2022-10-04T03:43:53;8.77;;;6.20;;
58302;SDS011;44109;52.398;7.024;2022-10-04T03:46:22;8.82;;;5.35;;
58302;SDS011;44109;52.398;7.024;2022-10-04T03:48:53;7.40;;;5.07;;
58302;SDS011;44109;52.398;7.024;2022-10-04T03:51:23;10.00;;;6.22;;
58302;SDS011;44109;52.398;7.024;2022-10-04T03:53:53;10.48;;;6.10;;
58302;SDS011;44109;52.398;7.024;2022-10-04T03:56:27;7.90;;;5.95;;
58302;SDS011;44109;52.398;7.024;2022-10-04T03:58:58;8.52;;;6.10;;
58302;SDS011;44109;52.398;7.024;2022-10-04T04:01:34;8.63;;;5.75;;
58302;SDS011;44109;52.398;7.024;2022-10-04T04:04:11;11.40;;;5.97;;
58302;SDS011;44109;52.398;7.024;2022-10-04T04:06:53;9.07;;;5.68;;
58302;SDS011;44109;52.398;7.024;2022-10-04T04:09:33;9.93;;;5.95;;
58302;SDS011;44109;52.398;7.024;2022-10-04T04:12:12;9.63;;;5.80;;
58302;SDS011;44109;52.398;7.024;2022-10-04T04:14:46;9.25;;;5.72;;
58302;SDS011;44109;52.398;7.024;2022-10-04T04:17:28;7.40;;;5.68;;
58302;SDS011;44109;52.398;7.024;2022-10-04T04:20:02;8.70;;;5.50;;
58302;SDS011;44109;52.398;7.024;2022-10-04T04:22:41;7.43;;;5.15;;
58302;SDS011;44109;52.398;7.024;2022-10-04T04:25:23;9.20;;;6.03;;
58302;SDS011;44109;52.398;7.024;2022-10-04T04:27:59;5.68;;;4.32;;
58302;SDS011;44109;52.398;7.024;2022-10-04T04:30:38;6.70;;;5.20;;
58302;SDS011;44109;52.398;7.024;2022-10-04T04:33:16;7.82;;;4.18;;
58302;SDS011;44109;52.398;7.024;2022-10-04T04:35:54;7.13;;;5.35;;
58302;SDS011;44109;52.398;7.024;2022-10-04T04:38:29;9.23;;;5.78;;
58302;SDS011;44109;52.398;7.024;2022-10-04T04:40:57;9.88;;;5.55;;
58302;SDS011;44109;52.398;7.024;2022-10-04T04:43:41;7.20;;;4.93;;
58302;SDS011;44109;52.398;7.024;2022-10-04T04:46:10;8.15;;;4.68;;
58302;SDS011;44109;52.398;7.024;2022-10-04T04:48:41;6.28;;;4.60;;
58302;SDS011;44109;52.398;7.024;2022-10-04T04:51:11;7.45;;;5.07;;
58302;SDS011;44109;52.398;7.024;2022-10-04T04:53:48;7.15;;;4.63;;
58302;SDS011;44109;52.398;7.024;2022-10-04T04:56:18;9.98;;;5.60;;
58302;SDS011;44109;52.398;7.024;2022-10-04T04:58:51;8.15;;;4.63;;
58302;SDS011;44109;52.398;7.024;2022-10-04T05:01:25;9.00;;;5.43;;
58302;SDS011;44109;52.398;7.024;2022-10-04T05:04:00;9.10;;;5.30;;
58302;SDS011;44109;52.398;7.024;2022-10-04T05:06:31;7.47;;;5.28;;
58302;SDS011;44109;52.398;7.024;2022-10-04T05:09:01;9.25;;;5.20;;
58302;SDS011;44109;52.398;7.024;2022-10-04T05:11:30;7.63;;;5.75;;
58302;SDS011;44109;52.398;7.024;2022-10-04T05:14:03;8.43;;;5.25;;
58302;SDS011;44109;52.398;7.024;2022-10-04T05:16:37;8.77;;;5.60;;
58302;SDS011;44109;52.398;7.024;2022-10-04T05:19:11;16.90;;;5.00;;
58302;SDS011;44109;52.398;7.024;2022-10-04T05:21:46;7.28;;;5.65;;
58302;SDS011;44109;52.398;7.024;2022-10-04T05:24:19;9.25;;;5.68;;
58302;SDS011;44109;52.398;7.024;2022-10-04T05:26:52;8.00;;;5.28;;
58302;SDS011;44109;52.398;7.024;2022-10-04T05:29:26;8.48;;;6.35;;
58302;SDS011;44109;52.398;7.024;2022-10-04T05:32:06;7.53;;;5.45;;
58302;SDS011;44109;52.398;7.024;2022-10-04T05:34:47;9.65;;;5.30;;
58302;SDS011;44109;52.398;7.024;2022-10-04T05:40:29;8.73;;;5.40;;
58302;SDS011;44109;52.398;7.024;2022-10-04T05:43:20;6.80;;;5.13;;
58302;SDS011;44109;52.398;7.024;2022-10-04T05:46:13;9.57;;;5.45;;
58302;SDS011;44109;52.398;7.024;2022-10-04T05:48:51;7.60;;;5.28;;
58302;SDS011;44109;52.398;7.024;2022-10-04T05:51:22;6.83;;;5.23;;
58302;SDS011;44109;52.398;7.024;2022-10-04T05:53:54;7.35;;;5.25;;
58302;SDS011;44109;52.398;7.024;2022-10-04T05:56:40;6.60;;;4.87;;
58302;SDS011;44109;52.398;7.024;2022-10-04T06:00:00;9.70;;;5.53;;
58302;SDS011;44109;52.398;7.024;2022-10-04T06:06:01;9.63;;;5.70;;
58302;SDS011;44109;52.398;7.024;2022-10-04T06:08:44;9.52;;;5.72;;
58302;SDS011;44109;52.398;7.024;2022-10-04T06:11:29;8.82;;;4.70;;
58302;SDS011;44109;52.398;7.024;2022-10-04T06:14:20;7.33;;;5.23;;
58302;SDS011;44109;52.398;7.024;2022-10-04T06:17:16;7.78;;;5.25;;
58302;SDS011;44109;52.398;7.024;2022-10-04T06:20:18;8.80;;;5.43;;
58302;SDS011;44109;52.398;7.024;2022-10-04T06:23:21;8.73;;;5.22;;
58302;SDS011;44109;52.398;7.024;2022-10-04T06:25:55;8.07;;;5.75;;
58302;SDS011;44109;52.398;7.024;2022-10-04T06:28:29;12.43;;;6.13;;
58302;SDS011;44109;52.398;7.024;2022-10-04T06:34:39;10.32;;;6.07;;
58302;SDS011;44109;52.398;7.024;2022-10-04T06:37:57;8.15;;;4.93;;
58302;SDS011;44109;52.398;7.024;2022-10-04T06:41:05;9.93;;;6.15;;
58302;SDS011;44109;52.398;7.024;2022-10-04T06:47:12;8.32;;;5.57;;
58302;SDS011;44109;52.398;7.024;2022-10-04T06:49:59;10.15;;;5.95;;
58302;SDS011;44109;52.398;7.024;2022-10-04T06:53:02;10.05;;;6.20;;
58302;SDS011;44109;52.398;7.024;2022-10-04T06:55:59;9.88;;;6.95;;
58302;SDS011;44109;52.398;7.024;2022-10-04T06:59:12;9.32;;;5.72;;
58302;SDS011;44109;52.398;7.024;2022-10-04T07:01:57;9.77;;;6.18;;
58302;SDS011;44109;52.398;7.024;2022-10-04T07:04:34;14.57;;;6.93;;
58302;SDS011;44109;52.398;7.024;2022-10-04T07:07:11;13.93;;;7.18;;
58302;SDS011;44109;52.398;7.024;2022-10-04T07:10:01;10.82;;;6.75;;
58302;SDS011;44109;52.398;7.024;2022-10-04T07:12:49;9.48;;;6.47;;
58302;SDS011;44109;52.398;7.024;2022-10-04T07:15:41;10.05;;;6.35;;
58302;SDS011;44109;52.398;7.024;2022-10-04T07:18:18;10.15;;;6.57;;
58302;SDS011;44109;52.398;7.024;2022-10-04T07:20:57;8.88;;;6.78;;
58302;SDS011;44109;52.398;7.024;2022-10-04T07:23:32;9.68;;;6.65;;
58302;SDS011;44109;52.398;7.024;2022-10-04T07:26:13;10.80;;;6.68;;
58302;SDS011;44109;52.398;7.024;2022-10-04T07:28:52;11.48;;;6.75;;
58302;SDS011;44109;52.398;7.024;2022-10-04T07:31:44;10.77;;;7.18;;
58302;SDS011;44109;52.398;7.024;2022-10-04T07:34:17;10.63;;;6.55;;
58302;SDS011;44109;52.398;7.024;2022-10-04T07:36:52;11.48;;;7.18;;
58302;SDS011;44109;52.398;7.024;2022-10-04T07:39:26;9.53;;;6.53;;
58302;SDS011;44109;52.398;7.024;2022-10-04T07:42:04;11.73;;;7.78;;
58302;SDS011;44109;52.398;7.024;2022-10-04T07:44:47;10.02;;;7.85;;
58302;SDS011;44109;52.398;7.024;2022-10-04T07:47:29;11.40;;;7.05;;
58302;SDS011;44109;52.398;7.024;2022-10-04T07:49:58;11.75;;;7.05;;
58302;SDS011;44109;52.398;7.024;2022-10-04T07:52:33;12.32;;;6.70;;
58302;SDS011;44109;52.398;7.024;2022-10-04T07:55:20;8.60;;;6.18;;
58302;SDS011;44109;52.398;7.024;2022-10-04T07:57:57;12.48;;;6.57;;
58302;SDS011;44109;52.398;7.024;2022-10-04T08:00:45;10.48;;;6.55;;
58302;SDS011;44109;52.398;7.024;2022-10-04T08:06:28;11.50;;;6.25;;
58302;SDS011;44109;52.398;7.024;2022-10-04T08:09:11;14.30;;;6.90;;
58302;SDS011;44109;52.398;7.024;2022-10-04T08:12:05;9.80;;;5.97;;
58302;SDS011;44109;52.398;7.024;2022-10-04T08:14:49;10.02;;;4.60;;
58302;SDS011;44109;52.398;7.024;2022-10-04T08:17:29;7.00;;;5.47;;
58302;SDS011;44109;52.398;7.024;2022-10-04T08:20:19;7.40;;;4.78;;
58302;SDS011;44109;52.398;7.024;2022-10-04T08:23:06;10.40;;;5.47;;
58302;SDS011;44109;52.398;7.024;2022-10-04T08:26:10;8.50;;;5.88;;
58302;SDS011;44109;52.398;7.024;2022-10-04T08:28:57;9.90;;;5.50;;
58302;SDS011;44109;52.398;7.024;2022-10-04T08:32:05;7.28;;;5.32;;
58302;SDS011;44109;52.398;7.024;2022-10-04T08:35:05;8.10;;;5.65;;
58302;SDS011;44109;52.398;7.024;2022-10-04T08:38:13;9.80;;;5.50;;
58302;SDS011;44109;52.398;7.024;2022-10-04T08:48:11;8.27;;;5.22;;
58302;SDS011;44109;52.398;7.024;2022-10-04T08:51:39;7.40;;;5.75;;
58302;SDS011;44109;52.398;7.024;2022-10-04T08:54:58;10.32;;;5.30;;
58302;SDS011;44109;52.398;7.024;2022-10-04T08:58:22;9.30;;;5.88;;
58302;SDS011;44109;52.398;7.024;2022-10-04T09:01:28;7.32;;;5.03;;
58302;SDS011;44109;52.398;7.024;2022-10-04T09:04:31;10.75;;;5.88;;
58302;SDS011;44109;52.398;7.024;2022-10-04T09:07:47;7.38;;;5.25;;
58302;SDS011;44109;52.398;7.024;2022-10-04T09:17:28;8.30;;;4.93;;
58302;SDS011;44109;52.398;7.024;2022-10-04T09:20:18;9.80;;;5.45;;
58302;SDS011;44109;52.398;7.024;2022-10-04T09:23:03;9.00;;;5.88;;
58302;SDS011;44109;52.398;7.024;2022-10-04T09:26:06;7.93;;;4.75;;
58302;SDS011;44109;52.398;7.024;2022-10-04T09:29:01;10.30;;;6.28;;
58302;SDS011;44109;52.398;7.024;2022-10-04T09:38:21;9.50;;;4.88;;
58302;SDS011;44109;52.398;7.024;2022-10-04T09:41:25;8.38;;;5.22;;
58302;SDS011;44109;52.398;7.024;2022-10-04T09:47:25;7.65;;;4.32;;
58302;SDS011;44109;52.398;7.024;2022-10-04T09:53:22;10.25;;;4.65;;
58302;SDS011;44109;52.398;7.024;2022-10-04T09:56:25;7.35;;;4.90;;
58302;SDS011;44109;52.398;7.024;2022-10-04T09:59:26;8.15;;;4.53;;
58302;SDS011;44109;52.398;7.024;2022-10-04T10:02:31;10.93;;;5.20;;
58302;SDS011;44109;52.398;7.024;2022-10-04T10:05:47;9.15;;;4.88;;
58302;SDS011;44109;52.398;7.024;2022-10-04T10:08:41;8.77;;;4.43;;
58302;SDS011;44109;52.398;7.024;2022-10-04T10:11:25;6.63;;;4.25;;
58302;SDS011;44109;52.398;7.024;2022-10-04T10:17:42;7.97;;;5.43;;
58302;SDS011;44109;52.398;7.024;2022-10-04T10:23:45;6.90;;;4.53;;
58302;SDS011;44109;52.398;7.024;2022-10-04T10:26:36;11.45;;;4.65;;
58302;SDS011;44109;52.398;7.024;2022-10-04T10:29:29;7.45;;;4.43;;
58302;SDS011;44109;52.398;7.024;2022-10-04T10:32:31;9.32;;;5.00;;
58302;SDS011;44109;52.398;7.024;2022-10-04T10:35:23;7.57;;;4.00;;
58302;SDS011;44109;52.398;7.024;2022-10-04T10:38:07;6.25;;;4.00;;
58302;SDS011;44109;52.398;7.024;2022-10-04T10:41:21;10.20;;;4.05;;
58302;SDS011;44109;52.398;7.024;2022-10-04T10:44:16;7.88;;;4.72;;
58302;SDS011;44109;52.398;7.024;2022-10-04T10:47:03;6.95;;;4.50;;
58302;SDS011;44109;52.398;7.024;2022-10-04T10:50:01;8.23;;;4.18;;
58302;SDS011;44109;52.398;7.024;2022-10-04T10:53:11;6.47;;;3.88;;
58302;SDS011;44109;52.398;7.024;2022-10-04T10:56:07;11.48;;;4.75;;
58302;SDS011;44109;52.398;7.024;2022-10-04T10:59:22;5.80;;;3.53;;
58302;SDS011;44109;52.398;7.024;2022-10-04T11:05:51;9.70;;;5.33;;
58302;SDS011;44109;52.398;7.024;2022-10-04T11:08:58;6.03;;;3.53;;
58302;SDS011;44109;52.398;7.024;2022-10-04T11:12:22;8.55;;;4.40;;
58302;SDS011;44109;52.398;7.024;2022-10-04T11:18:17;12.15;;;4.03;;
58302;SDS011;44109;52.398;7.024;2022-10-04T11:21:48;7.07;;;4.20;;
58302;SDS011;44109;52.398;7.024;2022-10-04T11:25:16;6.75;;;4.50;;
58302;SDS011;44109;52.398;7.024;2022-10-04T11:28:06;8.90;;;4.57;;
58302;SDS011;44109;52.398;7.024;2022-10-04T11:31:00;6.35;;;3.88;;
58302;SDS011;44109;52.398;7.024;2022-10-04T11:34:07;7.97;;;4.07;;
58302;SDS011;44109;52.398;7.024;2022-10-04T11:37:11;7.75;;;4.00;;
58302;SDS011;44109;52.398;7.024;2022-10-04T11:39:58;8.30;;;3.85;;
58302;SDS011;44109;52.398;7.024;2022-10-04T11:42:55;10.80;;;5.13;;
58302;SDS011;44109;52.398;7.024;2022-10-04T11:45:55;9.13;;;4.65;;
58302;SDS011;44109;52.398;7.024;2022-10-04T11:48:45;10.73;;;4.18;;
58302;SDS011;44109;52.398;7.024;2022-10-04T11:51:46;7.13;;;4.15;;
58302;SDS011;44109;52.398;7.024;2022-10-04T11:57:56;6.78;;;3.80;;
58302;SDS011;44109;52.398;7.024;2022-10-04T12:00:43;10.00;;;4.15;;
58302;SDS011;44109;52.398;7.024;2022-10-04T12:07:01;7.53;;;3.53;;
58302;SDS011;44109;52.398;7.024;2022-10-04T12:10:03;8.48;;;3.22;;
58302;SDS011;44109;52.398;7.024;2022-10-04T12:12:58;6.57;;;3.05;;
58302;SDS011;44109;52.398;7.024;2022-10-04T12:16:03;6.38;;;3.65;;
58302;SDS011;44109;52.398;7.024;2022-10-04T12:22:27;5.20;;;3.15;;
58302;SDS011;44109;52.398;7.024;2022-10-04T12:31:43;5.78;;;3.45;;
58302;SDS011;44109;52.398;7.024;2022-10-04T12:34:21;8.48;;;3.97;;
58302;SDS011;44109;52.398;7.024;2022-10-04T12:37:05;7.93;;;3.00;;
58302;SDS011;44109;52.398;7.024;2022-10-04T12:42:54;7.88;;;3.67;;
58302;SDS011;44109;52.398;7.024;2022-10-04T12:45:41;7.72;;;4.45;;
58302;SDS011;44109;52.398;7.024;2022-10-04T12:48:32;7.45;;;4.32;;
58302;SDS011;44109;52.398;7.024;2022-10-04T12:51:27;7.57;;;3.97;;
58302;SDS011;44109;52.398;7.024;2022-10-04T12:54:15;8.90;;;4.45;;
58302;SDS011;44109;52.398;7.024;2022-10-04T12:57:00;6.30;;;4.28;;
58302;SDS011;44109;52.398;7.024;2022-10-04T13:00:03;12.32;;;4.43;;
58302;SDS011;44109;52.398;7.024;2022-10-04T13:02:45;13.37;;;4.30;;
58302;SDS011;44109;52.398;7.024;2022-10-04T13:05:35;7.32;;;4.47;;
58302;SDS011;44109;52.398;7.024;2022-10-04T13:08:19;5.80;;;3.08;;
58302;SDS011;44109;52.398;7.024;2022-10-04T13:11:10;5.75;;;3.58;;
58302;SDS011;44109;52.398;7.024;2022-10-04T13:14:03;7.30;;;4.63;;
58302;SDS011;44109;52.398;7.024;2022-10-04T13:16:55;6.57;;;3.67;;
58302;SDS011;44109;52.398;7.024;2022-10-04T13:19:37;6.25;;;3.75;;
58302;SDS011;44109;52.398;7.024;2022-10-04T13:22:21;6.93;;;3.65;;
58302;SDS011;44109;52.398;7.024;2022-10-04T13:25:06;6.25;;;3.58;;
58302;SDS011;44109;52.398;7.024;2022-10-04T13:27:53;7.45;;;4.00;;
58302;SDS011;44109;52.398;7.024;2022-10-04T13:30:31;10.32;;;4.18;;
58302;SDS011;44109;52.398;7.024;2022-10-04T13:33:14;10.82;;;4.53;;
58302;SDS011;44109;52.398;7.024;2022-10-04T13:35:54;8.00;;;3.45;;
58302;SDS011;44109;52.398;7.024;2022-10-04T13:38:43;7.20;;;3.47;;
58302;SDS011;44109;52.398;7.024;2022-10-04T13:42:10;6.38;;;4.15;;
58302;SDS011;44109;52.398;7.024;2022-10-04T13:45:00;7.18;;;3.97;;
58302;SDS011;44109;52.398;7.024;2022-10-04T13:48:02;7.97;;;4.05;;
58302;SDS011;44109;52.398;7.024;2022-10-04T13:51:08;7.68;;;3.78;;
58302;SDS011;44109;52.398;7.024;2022-10-04T13:54:09;8.27;;;3.63;;
58302;SDS011;44109;52.398;7.024;2022-10-04T13:57:14;5.45;;;3.45;;
58302;SDS011;44109;52.398;7.024;2022-10-04T13:59:53;5.22;;;3.03;;
58302;SDS011;44109;52.398;7.024;2022-10-04T14:02:41;9.15;;;3.45;;
58302;SDS011;44109;52.398;7.024;2022-10-04T14:05:43;6.28;;;3.47;;
58302;SDS011;44109;52.398;7.024;2022-10-04T14:15:20;6.75;;;3.90;;
58302;SDS011;44109;52.398;7.024;2022-10-04T14:25:13;7.93;;;3.30;;
58302;SDS011;44109;52.398;7.024;2022-10-04T14:28:33;19.77;;;4.20;;
58302;SDS011;44109;52.398;7.024;2022-10-04T14:31:49;8.75;;;4.03;;
58302;SDS011;44109;52.398;7.024;2022-10-04T14:35:10;7.60;;;3.88;;
58302;SDS011;44109;52.398;7.024;2022-10-04T14:37:59;5.28;;;2.72;;
58302;SDS011;44109;52.398;7.024;2022-10-04T14:41:02;9.00;;;4.05;;
58302;SDS011;44109;52.398;7.024;2022-10-04T14:44:54;12.75;;;3.78;;
58302;SDS011;44109;52.398;7.024;2022-10-04T14:51:13;4.93;;;3.20;;
58302;SDS011;44109;52.398;7.024;2022-10-04T14:54:32;6.05;;;3.33;;
58302;SDS011;44109;52.398;7.024;2022-10-04T14:57:16;5.88;;;3.42;;
58302;SDS011;44109;52.398;7.024;2022-10-04T15:00:16;6.37;;;3.23;;
58302;SDS011;44109;52.398;7.024;2022-10-04T15:02:52;5.78;;;3.53;;
58302;SDS011;44109;52.398;7.024;2022-10-04T15:05:53;6.05;;;3.53;;
58302;SDS011;44109;52.398;7.024;2022-10-04T15:08:50;5.63;;;2.83;;
58302;SDS011;44109;52.398;7.024;2022-10-04T15:11:54;5.88;;;2.63;;
58302;SDS011;44109;52.398;7.024;2022-10-04T15:14:35;5.30;;;2.65;;
58302;SDS011;44109;52.398;7.024;2022-10-04T15:17:09;15.00;;;3.65;;
58302;SDS011;44109;52.398;7.024;2022-10-04T15:19:58;4.15;;;2.28;;
58302;SDS011;44109;52.398;7.024;2022-10-04T15:22:37;7.05;;;2.97;;
58302;SDS011;44109;52.398;7.024;2022-10-04T15:28:07;5.20;;;3.20;;
58302;SDS011;44109;52.398;7.024;2022-10-04T15:30:59;7.15;;;3.22;;
58302;SDS011;44109;52.398;7.024;2022-10-04T15:33:44;8.57;;;3.35;;
58302;SDS011;44109;52.398;7.024;2022-10-04T15:36:31;7.03;;;3.40;;
58302;SDS011;44109;52.398;7.024;2022-10-04T15:39:25;3.63;;;2.47;;
58302;SDS011;44109;52.398;7.024;2022-10-04T15:42:21;6.38;;;2.65;;
58302;SDS011;44109;52.398;7.024;2022-10-04T15:44:57;4.35;;;2.78;;
58302;SDS011;44109;52.398;7.024;2022-10-04T15:48:04;5.80;;;2.90;;
58302;SDS011;44109;52.398;7.024;2022-10-04T15:50:59;7.55;;;3.22;;
58302;SDS011;44109;52.398;7.024;2022-10-04T15:53:39;5.93;;;3.53;;
58302;SDS011;44109;52.398;7.024;2022-10-04T15:56:31;6.35;;;2.97;;
58302;SDS011;44109;52.398;7.024;2022-10-04T16:02:32;7.13;;;3.25;;
58302;SDS011;44109;52.398;7.024;2022-10-04T16:05:26;8.38;;;2.60;;
58302;SDS011;44109;52.398;7.024;2022-10-04T16:08:18;4.97;;;2.78;;
58302;SDS011;44109;52.398;7.024;2022-10-04T16:11:05;7.38;;;3.25;;
58302;SDS011;44109;52.398;7.024;2022-10-04T16:14:03;5.82;;;3.20;;
58302;SDS011;44109;52.398;7.024;2022-10-04T16:16:59;4.65;;;2.55;;
58302;SDS011;44109;52.398;7.024;2022-10-04T16:23:28;4.90;;;2.60;;
58302;SDS011;44109;52.398;7.024;2022-10-04T16:31:38;4.75;;;2.95;;
58302;SDS011;44109;52.398;7.024;2022-10-04T16:34:16;4.03;;;2.58;;
58302;SDS011;44109;52.398;7.024;2022-10-04T16:37:12;7.78;;;3.00;;
58302;SDS011;44109;52.398;7.024;2022-10-04T16:39:53;5.22;;;2.83;;
58302;SDS011;44109;52.398;7.024;2022-10-04T16:42:33;6.60;;;2.60;;
58302;SDS011;44109;52.398;7.024;2022-10-04T16:48:20;4.93;;;2.78;;
58302;SDS011;44109;52.398;7.024;2022-10-04T16:54:25;10.07;;;3.88;;
58302;SDS011;44109;52.398;7.024;2022-10-04T16:57:24;5.03;;;3.05;;
58302;SDS011;44109;52.398;7.024;2022-10-04T16:59:53;5.10;;;2.67;;
58302;SDS011;44109;52.398;7.024;2022-10-04T17:05:44;7.30;;;2.95;;
58302;SDS011;44109;52.398;7.024;2022-10-04T17:08:22;4.50;;;3.10;;
58302;SDS011;44109;52.398;7.024;2022-10-04T17:11:05;7.45;;;3.33;;
58302;SDS011;44109;52.398;7.024;2022-10-04T17:14:02;9.88;;;3.63;;
58302;SDS011;44109;52.398;7.024;2022-10-04T17:17:01;7.35;;;3.65;;
58302;SDS011;44109;52.398;7.024;2022-10-04T17:19:44;4.82;;;3.05;;
58302;SDS011;44109;52.398;7.024;2022-10-04T17:22:19;5.10;;;3.25;;
58302;SDS011;44109;52.398;7.024;2022-10-04T17:25:12;4.93;;;3.08;;
58302;SDS011;44109;52.398;7.024;2022-10-04T17:27:54;6.32;;;3.15;;
58302;SDS011;44109;52.398;7.024;2022-10-04T17:30:43;4.57;;;3.10;;
58302;SDS011;44109;52.398;7.024;2022-10-04T17:33:24;7.40;;;3.85;;
58302;SDS011;44109;52.398;7.024;2022-10-04T17:36:21;5.82;;;3.22;;
58302;SDS011;44109;52.398;7.024;2022-10-04T17:39:10;8.98;;;4.35;;
58302;SDS011;44109;52.398;7.024;2022-10-04T17:41:56;13.82;;;4.07;;
58302;SDS011;44109;52.398;7.024;2022-10-04T17:44:58;6.13;;;3.75;;
58302;SDS011;44109;52.398;7.024;2022-10-04T17:47:53;7.20;;;4.00;;
58302;SDS011;44109;52.398;7.024;2022-10-04T17:50:49;5.32;;;3.10;;
58302;SDS011;44109;52.398;7.024;2022-10-04T17:53:44;6.78;;;3.80;;
58302;SDS011;44109;52.398;7.024;2022-10-04T17:56:38;6.00;;;3.30;;
58302;SDS011;44109;52.398;7.024;2022-10-04T17:59:14;4.75;;;3.35;;
58302;SDS011;44109;52.398;7.024;2022-10-04T18:01:46;7.28;;;4.15;;
58302;SDS011;44109;52.398;7.024;2022-10-04T18:04:28;5.75;;;3.50;;
58302;SDS011;44109;52.398;7.024;2022-10-04T18:07:03;6.53;;;4.07;;
58302;SDS011;44109;52.398;7.024;2022-10-04T18:09:42;8.43;;;4.50;;
58302;SDS011;44109;52.398;7.024;2022-10-04T18:12:22;7.13;;;4.35;;
58302;SDS011;44109;52.398;7.024;2022-10-04T18:14:57;6.50;;;3.47;;
58302;SDS011;44109;52.398;7.024;2022-10-04T18:17:35;8.63;;;4.57;;
58302;SDS011;44109;52.398;7.024;2022-10-04T18:20:22;7.03;;;3.70;;
58302;SDS011;44109;52.398;7.024;2022-10-04T18:22:57;6.45;;;3.60;;
58302;SDS011;44109;52.398;7.024;2022-10-04T18:25:28;7.32;;;3.88;;
58302;SDS011;44109;52.398;7.024;2022-10-04T18:27:59;5.78;;;3.78;;
58302;SDS011;44109;52.398;7.024;2022-10-04T18:30:31;7.40;;;4.10;;
58302;SDS011;44109;52.398;7.024;2022-10-04T18:33:01;7.85;;;3.70;;
58302;SDS011;44109;52.398;7.024;2022-10-04T18:35:37;7.47;;;4.78;;
58302;SDS011;44109;52.398;7.024;2022-10-04T18:38:21;7.80;;;3.90;;